Nektarios Artymatas

Olheiro - Omonoia
3 Dez 2028
Domingo
Processo

Personalidade

Adaptabilidade (18) Ambição (3) Controvérsia (1) Lealdade (9) Pressão (2) Profissionalismo (13) Espírito Esportivo (6) Temperamento (15)

Perfil

Estilo de Treinamento Democrático
Licença Continental A
Determinação 12
Gestão de Pessoas 11
Motivação 10
Disciplina 8
Satisfação no Trabalho
100%
Fadiga
0%
Função Olheiro
Salário 52.4K p/s
Contrato 14.03.2029

Desempenho

Comportamento Bom
Eficácia do Treinamento
40%
Desenvolvimento do Jogador
60%
Prevenção de Lesões
45%
Implementação Tática
40%

Eventos Recentes

Participou de uma reunião de recrutamento agora
Avaliou um jogador agora
Avaliou um jogador agora
Avaliou um jogador agora
Avaliou um jogador 7d atrás
Observou uma partida 7d atrás
Observou uma partida 7d atrás
Avaliou um jogador 7d atrás

Monitorando agora

387
Jogador Clube Status Habilidade Confiança Observado Última observação Último voto
Thiago Parga Huracán Ativo 96 / 111 40% 5 30.11.2028 -
José Alburquenque Universidad de Chile Ativo 93 / 98 40% 1 30.11.2028 -
Matt Bagot Fulham Ativo 81 / 93 40% 1 30.11.2028 -
Robert Cook Accrington Stanley Ativo 123 / 126 40% 17 29.11.2028 -
Matías Villa Envigado Ativo 85 / 96 40% 3 29.11.2028 -
Tobías Mendoza Estudiantes Ativo 89 / 98 40% 2 29.11.2028 -
Domnan Panse Plateau United Ativo 104 / 100 40% 5 28.11.2028 -
Liam Doyle Brighton Ativo 82 / 91 40% 1 28.11.2028 -
Nicolás Osorio Once Caldas Ativo 86 / 90 40% 1 28.11.2028 -
Nicholas Michalski Northampton Town Ativo 126 / 121 40% 7 25.11.2028 -
Francisco Valdés Universidad Catolica Ativo 99 / 99 40% 2 25.11.2028 -
Lanre Awesu West Ham United Ativo 101 / 95 40% 1 25.11.2028 -
Owen Asemota Aston Villa Ativo 92 / 111 40% 2 21.11.2028 -
Aljaž Strajnar Giugliano Ativo 106 / 117 40% 2 21.11.2028 -
Amil Siljevic Heracles Ativo 103 / 115 40% 1 21.11.2028 -
Lionel Madriaga Belgrano Ativo 95 / 98 40% 4 19.11.2028 -
Damian Čech Fulham Ativo 98 / 100 40% 3 19.11.2028 -
Alessandro Nunziante Mantova Ativo 128 / 131 40% 7 19.11.2028 -
Sam Proctor Salford City Ativo 116 / 138 40% 24 18.11.2028 -
Raúl Duran Real Madrid Ativo 111 / 104 40% 3 16.11.2028 -
Alexander Zenti Giana Erminio Ativo 106 / 117 40% 2 16.11.2028 -
Matías Vilalta Giana Erminio Ativo 110 / 103 40% 4 14.11.2028 -
Tomás Silva Lanús Ativo 95 / 109 40% 1 14.11.2028 -
Juan Álvarez Argentinos Juniors Ativo 98 / 101 40% 2 13.11.2028 -
David Medina Atlético Madrid Ativo 102 / 108 40% 2 13.11.2028 -
Alejandro Martínez Tigres Ativo 91 / 90 40% 2 13.11.2028 -
Alfonso Álvarez Ferro Carril Oeste Ativo 104 / 101 40% 5 12.11.2028 -
Luis Lines Norwich City Ativo 94 / 102 40% 2 12.11.2028 -
Vito Rosané IFK Goteborg Ativo 94 / 95 40% 4 12.11.2028 -
Dylan Moody Cheltenham Town Ativo 121 / 132 40% 11 11.11.2028 -
Patricio Flores Defensa y Justicia Ativo 101 / 103 40% 2 10.11.2028 -
Franco Jaroszewicz River Plate Ativo 111 / 127 40% 1 10.11.2028 -
Henier Rodríguez Carabobo Ativo 86 / 94 40% 1 10.11.2028 -
Dylan Martínez River Plate Ativo 108 / 106 40% 5 07.11.2028 -
Callan McKenna Derby County Ativo 113 / 120 40% 3 07.11.2028 -
Fred Heath Manchester United Ativo 100 / 96 40% 2 07.11.2028 -
Ezequiel Zapata Rosario Central Ativo 94 / 101 40% 3 04.11.2028 -
Raffaele Huli Juventus Ativo 102 / 115 40% 1 04.11.2028 -
Bryan Francillonne Paris Saint-Germain Ativo 111 / 111 40% 1 03.11.2028 -
Benicio Romero Inter Ativo 89 / 107 40% 1 03.11.2028 -
Kai Crampton Rapid Wien Ativo 108 / 110 40% 2 02.11.2028 -
Vladan Čarapić Partizan Ativo 96 / 111 40% 1 02.11.2028 -
Hudson Sands Chelsea Ativo 105 / 114 40% 4 01.11.2028 -
Vladislav Drozd Isloch Ativo 66 / 84 40% 2 01.11.2028 -
Nicolás Monges Sarmiento Ativo 90 / 105 40% 2 31.10.2028 -
Ezequiel Cardozo Arsenal Ativo 81 / 87 40% 1 30.10.2028 -
Ramiro Buratti River Plate Ativo 93 / 114 40% 4 26.10.2028 -
Agustín Ayala Gimnasia La Plata Ativo 88 / 102 40% 1 26.10.2028 -
Joe Bailey Nottingham Forest Ativo 86 / 89 40% 1 26.10.2028 -
Máximo Casalnuovo Morón Ativo 88 / 100 40% 3 23.10.2028 -
Leonardo Sosa Rosario Central Ativo 99 / 107 40% 9 21.10.2028 -
Yurdy Ramos Real Santander Ativo 82 / 95 40% 5 21.10.2028 -
Joseph Cowan Sunderland Ativo 100 / 108 40% 3 19.10.2028 -
Noé Poillion Stade Brestois Ativo 96 / 107 40% 1 19.10.2028 -
Saúl Durán Gornik Zabrze Ativo 91 / 99 40% 1 19.10.2028 -
Finley Grigg Manchester City Ativo 107 / 119 40% 2 18.10.2028 -
Arseny Osadchiy Krylya Sovetov Ativo 88 / 81 40% 1 18.10.2028 -
Miguel Gouveia Girona Ativo 118 / 122 40% 1 18.10.2028 -
Andrey Tsitsilin Baltika Ativo 86 / 93 40% 2 17.10.2028 -
Matteo Farronato Inter Ativo 96 / 112 40% 1 16.10.2028 -
Lautaro Vera Platense Ativo 103 / 110 40% 3 11.10.2028 -
Francesco Cereser Ospitaletto Ativo 112 / 108 40% 1 11.10.2028 -
Iván Díaz Millonarios Ativo 92 / 92 40% 2 06.10.2028 -
Agustín Reynoso Boca Juniors Ativo 99 / 104 40% 1 06.10.2028 -
Farren Doran Tottenham Ativo 94 / 112 40% 5 03.10.2028 -
Álvaro Busso Vélez Ativo 108 / 121 40% 11 01.10.2028 -
Iason Georgakopoulos Giresunspor Ativo 105 / 108 40% 1 01.10.2028 -
Renato Ardissono San Lorenzo Ativo 99 / 103 40% 3 29.09.2028 -
Kabangu Alex Teixeira Le Havre AC Ativo 114 / 124 40% 3 29.09.2028 -
José Quevedo Tigres Ativo 92 / 91 40% 3 28.09.2028 -
Diego Di Salvatore AS Roma Ativo 95 / 108 40% 1 28.09.2028 -
Nahuel Scarpino Ferro Carril Oeste Ativo 80 / 93 40% 1 28.09.2028 -
Salaheddine Benyachou Doxa Ativo 113 / 113 42% 1 / 1m 27.09.2028 -
Yerson Chacón AE Kition Ativo 133 / 133 42% 1 / 1m 27.09.2028 -
Blake Irow Tottenham Ativo 101 / 112 40% 5 25.09.2028 -
Enzo Romero Defensa y Justicia Ativo 97 / 94 40% 2 21.09.2028 -
Almustapha Kabiru Plateau United Ativo 96 / 86 40% 2 20.09.2028 -
Gabriel Maureira Colo-Colo Ativo 100 / 102 40% 1 19.09.2028 -
Valentín Perroud Boca Juniors Ativo 90 / 99 40% 1 18.09.2028 -
Walter Molina Defensa y Justicia Ativo 85 / 97 40% 4 17.09.2028 -
Joel Abregu Temperley Ativo 97 / 99 40% 2 15.09.2028 -
Oisin Cooney Burnley Ativo 92 / 93 40% 1 15.09.2028 -
Zac Smith Nottingham Forest Ativo 95 / 96 40% 1 14.09.2028 -
David Mojica Union Magdalena Ativo 92 / 93 40% 1 11.09.2028 -
Jack Allan Aston Villa Ativo 101 / 98 40% 2 10.09.2028 -
Alastair Graham Nottingham Forest Ativo 108 / 112 40% 3 08.09.2028 -
Owen Grainger Nottingham Forest Ativo 80 / 88 40% 1 08.09.2028 -
Thiago Nahuel Independiente Ativo 93 / 101 40% 5 07.09.2028 -
Ryan Pepi DC United Ativo 72 / 93 40% 1 07.09.2028 -
Fabián Cristaldo Defensor Sporting Ativo 101 / 103 40% 1 06.09.2028 -
Lucas Escalante San Diego Football Club Ativo 95 / 83 40% 1 06.09.2028 -
Antonio Iglesias Sevilla Ativo 102 / 103 40% 1 06.09.2028 -
Luca Campagnaro Colón Ativo 89 / 99 40% 4 04.09.2028 -
Dante Blanco Lanús Ativo 98 / 106 40% 1 04.09.2028 -
Stavros Psyropoulos Kasimpasa Ativo 80 / 91 40% 1 04.09.2028 -
Andreas Stafylidis Asteras Ativo 94 / 109 40% 2 03.09.2028 -
Mauro Matorras Central Norte Ativo 95 / 101 40% 2 03.09.2028 -
Valentín Gradín Al-Ettifaq Ativo 100 / 97 40% 1 03.09.2028 -
Tiago Gordillo San Miguel Ativo 90 / 97 40% 11 02.09.2028 -
Máximo Munarriz San Telmo Ativo 103 / 111 40% 5 02.09.2028 -
Tiago Cobo Morón Ativo 79 / 87 40% 2 02.09.2028 -
Benito Paklayan Alvarado Ativo 89 / 92 40% 2 01.09.2028 -
Santiago Moreira Quilmes Ativo 80 / 88 40% 1 01.09.2028 -
Lucas Silva River Plate Ativo 111 / 112 40% 1 01.09.2028 -
Agustín Medina Lanús Ativo 113 / 126 40% 3 31.08.2028 -
Joaquín Salas Reading Ativo 86 / 114 40% 1 31.08.2028 -
Jack Austin Chelsea Ativo 108 / 113 40% 3 29.08.2028 -
Ivan Borges Defensores Ativo 79 / 87 40% 2 29.08.2028 -
Felipe Obradovich Ferro Carril Oeste Ativo 102 / 116 40% 1 29.08.2028 -
Yolvis Humanes Union Magdalena Ativo 86 / 93 40% 2 28.08.2028 -
Quincy De Roon PSV Ativo 88 / 97 40% 1 26.08.2028 -
Pavlos Tsiotas Zurich Ativo 77 / 91 40% 1 26.08.2028 -
Andrey Ivlev Nizhniy Novgorod Ativo 123 / 114 40% 6 25.08.2028 -
Román Colo All Boys Ativo 84 / 101 40% 2 25.08.2028 -
Jan Cedilnik Chikhura Ativo 80 / 95 40% 5 25.08.2028 -
Dylan Thompson Tottenham Ativo 101 / 94 40% 2 25.08.2028 -
Sebastiano Nava Juventus Ativo 104 / 116 40% 1 25.08.2028 -
Riquelme Thompson-Jones Accrington Stanley Ativo 111 / 113 40% 9 24.08.2028 -
Tobías Ramírez River Plate Ativo 137 / 134 40% 9 24.08.2028 -
Anderson Acevedo Bogota Ativo 93 / 95 40% 1 24.08.2028 -
Vasilis Karkatsalis Rayo Vallecano Ativo 90 / 102 40% 6 22.08.2028 -
Mateo Faure BATE Ativo 84 / 101 40% 6 21.08.2028 -
Calvin Diakite Chesterfield Ativo 93 / 97 40% 1 21.08.2028 -
Marcos López Banfield Ativo 103 / 99 40% 1 21.08.2028 -
Amar Milisic Vitoria Guimaraes Ativo 83 / 103 40% 1 20.08.2028 -
Estanislao López Colón Ativo 92 / 101 40% 3 19.08.2028 -
Matías Satas Grimsby Town Ativo 96 / 119 40% 1 19.08.2028 -
Federico Matarán Giana Erminio Ativo 95 / 121 40% 4 18.08.2028 -
Alfie Cresswell Leeds United Ativo 109 / 112 40% 1 18.08.2028 -
Duje Slatina Trapani Ativo 89 / 93 40% 2 17.08.2028 -
Thiago Salinas Argentinos Juniors Ativo 94 / 102 40% 1 17.08.2028 -
Claudio Lopez MSK Zilina Ativo 89 / 96 40% 1 17.08.2028 -
Joaquín Ravasio Talleres Ativo 83 / 93 40% 1 17.08.2028 -
Fabio Rispoli Como Ativo 113 / 130 40% 3 15.08.2028 -
Samuel Córdoba Depor Ativo 92 / 95 40% 2 15.08.2028 -
Mateo Ferrari Atlanta Ativo 92 / 97 40% 1 14.08.2028 -
Óscar Surmay Union Magdalena Ativo 78 / 89 40% 1 14.08.2028 -
Simón Escobar Vélez Ativo 92 / 111 40% 1 13.08.2028 -
Agustín Martínez Cádiz Ativo 104 / 114 40% 6 12.08.2028 -
Tomás Báez Boca Juniors Ativo 93 / 101 40% 4 12.08.2028 -
Mason Miley Newcastle United Ativo 103 / 111 40% 1 12.08.2028 -
Diego Vargas Universidad de Concepcion Ativo 88 / 97 40% 1 12.08.2028 -
Seth Ridgeon Fulham Ativo 97 / 118 40% 2 07.08.2028 -
Mauricio Ponce Quilmes Ativo 95 / 94 40% 1 07.08.2028 -
Mateo Caballero Defensor Sporting Ativo 106 / 107 40% 1 07.08.2028 -
Santino Aguirre Deportivo Riestra Ativo 92 / 97 40% 1 06.08.2028 -
Maximiliano Duarte Independiente Ativo 99 / 107 40% 1 06.08.2028 -
Seydou Fofana Pacos de Ferreira Ativo 107 / 117 40% 4 05.08.2028 -
Francisco Arias Gimnasia y Esgrima Ativo 83 / 92 40% 2 05.08.2028 -
Aaron Branca Artigas Ativo 86 / 84 40% 2 04.08.2028 -
Mihail Polendakov Sheffield United Ativo 110 / 113 40% 1 03.08.2028 -
Lamine Bèye Portimonense Ativo 105 / 124 40% 4 02.08.2028 -
Sam Alabi Newcastle United Ativo 119 / 123 40% 1 02.08.2028 -
Kiani Inge Groningen Ativo 117 / 126 40% 6 01.08.2028 -
Miguel Figueiredo Benfica Ativo 132 / 124 40% 9 27.07.2028 -
Eric Klein Real Salt Lake Ativo 113 / 108 40% 1 26.07.2028 -
Agustín Desimone San Miguel Ativo 90 / 93 40% 1 26.07.2028 -
Kamaldeen Atiemo Wa All Stars Ativo 109 / 113 40% 1 25.07.2028 -
Ulises Piedrabuena Vélez Ativo 104 / 112 40% 1 25.07.2028 -
Nazareno Roselli Defensa y Justicia Ativo 117 / 120 40% 3 23.07.2028 -
Ignacio Ovando Rosario Central Ativo 109 / 119 40% 1 22.07.2028 -
Gonzalo Escudero Racing Club Ativo 105 / 114 40% 1 22.07.2028 -
Elián Báez Caracas Ativo 93 / 89 40% 1 21.07.2028 -
Vasilije Novičić IMT Ativo 114 / 120 40% 1 20.07.2028 -
Bruno Rizzi Instituto Ativo 95 / 91 40% 1 18.07.2028 -
Valentin Roberge AE Kition Rejeitado 97 / 109 65% 1 17.07.2028 Rejeitar
Galo Avendaño Aldosivi Ativo 99 / 100 40% 3 15.07.2028 -
Maxim Radchenko Rostov Ativo 84 / 95 40% 3 15.07.2028 -
Nejc Brekalo NK Domzale Ativo 112 / 105 40% 1 15.07.2028 -
Martín D'Aurizio Huracán Ativo 109 / 109 40% 2 13.07.2028 -
Adam Harrison Newcastle United Ativo 85 / 96 40% 2 13.07.2028 -
Olivier Leroux Mouscron Ativo 94 / 112 40% 4 12.07.2028 -
Mats Egbring Heerenveen Ativo 115 / 116 40% 3 12.07.2028 -
Ianis Marin Pandurii Ativo 107 / 105 40% 1 10.07.2028 -
Ho Sy Duc Pribram Ativo 97 / 90 40% 2 08.07.2028 -
Deimer Longas Nimes Ativo 78 / 93 40% 1 08.07.2028 -
Valentín Loza Defensa y Justicia Ativo 103 / 113 40% 1 06.07.2028 -
Aymean El Hani Ajax Ativo 98 / 105 40% 1 06.07.2028 -
Mouhmadou Mansour Thiam Bra Ativo 73 / 83 40% 2 04.07.2028 -
Nicolò Moranduzzo Renate Ativo 96 / 103 40% 10 03.07.2028 -
Makar Vysochenko Spartak Moscow Ativo 87 / 97 40% 4 03.07.2028 -
Jack Shorrock Port Vale Ativo 98 / 102 40% 1 03.07.2028 -
Matai Akinmboni Bournemouth Ativo 105 / 115 40% 1 02.07.2028 -
João Capucho Benfica Ativo 116 / 114 40% 1 29.06.2028 -
Mehdi Noorafkan Padideh Ativo 104 / 104 40% 1 28.06.2028 -
Omar Tharwat Arab Contractors Ativo 96 / 99 40% 1 25.06.2028 -
Owen Eames Derby County Ativo 109 / 99 40% 1 21.06.2028 -
Alexandr Lubnin Zenit Penza Ativo 90 / 88 40% 1 21.06.2028 -
Malachi Molina FC Dallas Ativo 91 / 101 40% 1 20.06.2028 -
Samuel Amissah Fulham Ativo 116 / 106 40% 1 20.06.2028 -
Noah Markmann Esbjerg Ativo 120 / 126 40% 1 17.06.2028 -
Hunor Németh FC Copenhagen Ativo 123 / 115 40% 1 14.06.2028 -
Jenson Jones Walsall Ativo 92 / 113 40% 3 10.06.2028 -
Thato Sibiya Orlando Pirates Ativo 121 / 113 40% 2 10.06.2028 -
Denys Smetana Rukh Ativo 102 / 100 40% 3 09.06.2028 -
Isaac Monnier FC Lorient Ativo 105 / 99 40% 1 07.06.2028 -
Ignacio Roldán Lanús Ativo 93 / 110 40% 1 30.05.2028 -
Thiago Sabella Banfield Ativo 107 / 112 40% 2 28.05.2028 -
Augusto Bando Ascoli Ativo 115 / 121 40% 2 27.05.2028 -
Woody Williamson Accrington Stanley Rejeitado 107 / 105 40% 9 26.05.2028 -
Amine Boukamir Charleroi Ativo 105 / 105 40% 3 25.05.2028 -
Bernardo Lima Porto Ativo 111 / 117 40% 5 24.05.2028 -
Lisandro Musso Central Córdoba SdE Ativo 91 / 106 40% 4 22.05.2028 -
Jhusstyn Rentería Atletico Nacional Ativo 91 / 99 40% 2 21.05.2028 -
Duran Ferree San Diego Football Club Ativo 101 / 115 40% 1 21.05.2028 -
Musa Danjuma Umraniyespor Ativo 88 / 110 40% 1 21.05.2028 -
Carlos Hernández Deportivo Riestra Ativo 96 / 90 40% 1 19.05.2028 -
Bence Szakos Aris Ativo 101 / 103 40% 2 18.05.2028 -
Nour Ashraf ENPPI Ativo 80 / 85 40% 1 18.05.2028 -
Tobiáš Pališčák Zlin Ativo 92 / 104 40% 1 17.05.2028 -
Agustín Nogueira Barracas Central Ativo 105 / 109 40% 5 16.05.2028 -
Lwandiso Radebe Ajax Cape Town Ativo 94 / 99 40% 2 16.05.2028 -
Alex Villa González Atlético Tucumán Ativo 98 / 98 40% 1 16.05.2028 -
Milad Nekounam Gostaresh Foulad Ativo 76 / 95 40% 1 15.05.2028 -
Daniel Fois Südtirol Ativo 83 / 88 40% 1 14.05.2028 -
Diego Bolaños Veracruz Ativo 84 / 97 40% 1 12.05.2028 -
Facundo Binzugna Boca Juniors Ativo 93 / 100 40% 1 12.05.2028 -
Máximo Núñez Los Andes Ativo 102 / 107 40% 4 10.05.2028 -
Nicolás Ruiz Tigres Ativo 92 / 93 40% 1 10.05.2028 -
Thiago Perruisset Boca Juniors Ativo 90 / 102 40% 7 08.05.2028 -
George Hardy Charlton Athletic Ativo 73 / 90 40% 1 08.05.2028 -
Fernando Bravo Almería Ativo 113 / 110 40% 2 07.05.2028 -
Randall Castillo Universidad de Chile Ativo 90 / 93 40% 1 07.05.2028 -
Irwin Zamudio Tijuana Ativo 77 / 96 40% 1 05.05.2028 -
Kelian Le Pironnec Mirandés Ativo 103 / 99 40% 2 03.05.2028 -
Fabián Correa Barranquilla Ativo 92 / 94 40% 1 03.05.2028 -
Duván Córdoba Jaguares Ativo 95 / 104 40% 2 01.05.2028 -
Ángel Aguayo Sol de America Ativo 95 / 104 40% 1 01.05.2028 -
Juan David Lázaro Patriotas Ativo 90 / 103 40% 3 28.04.2028 -
Finley Taylor Blackburn Rovers Ativo 69 / 90 40% 1 28.04.2028 -
Isa Aji US Bougouni Ativo 84 / 90 40% 2 27.04.2028 -
Ramiro Pueblas Argentinos Juniors Ativo 81 / 91 40% 4 26.04.2028 -
Oscar Varney Coventry City Ativo 93 / 84 40% 1 26.04.2028 -
Sam Jones Cardiff City Ativo 79 / 92 40% 1 26.04.2028 -
Martim Cunha Porto Ativo 101 / 112 40% 5 23.04.2028 -
Ayoub Akabou Ceuta Ativo 101 / 111 40% 2 23.04.2028 -
Jayden Ngwashi Manchester United Ativo 115 / 125 40% 1 23.04.2028 -
Yeifer Herrera Leones Ativo 94 / 94 40% 1 23.04.2028 -
Bark Abdramane AS PSI Ativo 78 / 80 40% 5 22.04.2028 -
Gino Rizzo Rosario Central Ativo 83 / 83 40% 1 19.04.2028 -
Julián Alcar Banfield Ativo 93 / 95 40% 5 15.04.2028 -
Toby Bell Chelsea Ativo 90 / 95 40% 1 15.04.2028 -
Gianluca Valdiviezo Colón Ativo 103 / 107 40% 1 13.04.2028 -
Santiago Suárez Queretaro Ativo 68 / 81 40% 1 13.04.2028 -
Nicolás Casa Barranquilla Ativo 89 / 90 40% 2 12.04.2028 -
Leon Klanac Bayern Munich Ativo 97 / 111 40% 1 09.04.2028 -
Law McCabe Middlesbrough Ativo 124 / 126 40% 1 09.04.2028 -
Jakub Adkonis Korona Ativo 89 / 109 40% 1 09.04.2028 -
Eze Matthew Enyimba Ativo 89 / 84 40% 1 04.04.2028 -
Samuel Galindo Deportes Tolima Ativo 79 / 98 40% 1 03.04.2028 -
Yegor Koshkin Pobeda Ativo 95 / 90 40% 7 01.04.2028 -
Jorman Mendoza Envigado Ativo 81 / 92 40% 2 31.03.2028 -
Jan Bürger Northampton Town Ativo 129 / 119 40% 3 29.03.2028 -
Jon Esenga IF Elfsborg Ativo 84 / 105 40% 4 29.03.2028 -
Juan Kuverling Unión de Santa Fe Ativo 88 / 90 40% 1 28.03.2028 -
Othniël Raterink Cagliari Ativo 110 / 117 40% 1 27.03.2028 -
Manuel Pereyra Tigre Ativo 98 / 94 40% 1 24.03.2028 -
Patricio Schroeder Gimnasia La Plata Ativo 89 / 91 40% 1 22.03.2028 -
Nicolas Sport Recife Ativo 102 / 115 40% 4 21.03.2028 -
Denis Grigorjev Arsenal Tula Ativo 75 / 93 40% 2 21.03.2028 -
Maximiliano Campos Zamora Ativo 101 / 102 40% 1 19.03.2028 -
Alejandro Gutiérrez Mineros de Guayana Ativo 86 / 95 40% 1 17.03.2028 -
Gerardo Díaz San Martín SJ Ativo 102 / 100 40% 4 15.03.2028 -
Jeremías Robledo Acosta Newell's Old Boys Ativo 89 / 94 40% 2 15.03.2028 -
Giannis Christodoulopoulos Olympiacos Ativo 92 / 79 40% 2 12.03.2028 -
Thiago Silvero Vélez Ativo 132 / 131 40% 1 12.03.2028 -
Ignacio Coscio Huracán Ativo 101 / 99 40% 1 10.03.2028 -
Cristian Derbyshire Binga Ativo 75 / 74 40% 1 08.03.2028 -
Jorge Sánchez Carabobo Ativo 102 / 101 40% 3 04.03.2028 -
Íker Blanco Deportivo Cali Ativo 96 / 100 40% 2 29.02.2028 -
Carlos Nemocón Santa Fe Ativo 90 / 99 40% 7 26.02.2028 -
Samuel Atehortúa Deportivo Pereira Ativo 80 / 93 40% 1 22.02.2028 -
David Fernández Unión de Santa Fe Ativo 83 / 96 40% 1 22.02.2028 -
Lorenz Ferdinand Tondela Ativo 86 / 98 40% 2 19.02.2028 -
Marcos Suárez Sevilla Ativo 82 / 88 40% 1 17.02.2028 -
Danilo Monza Sarmiento Ativo 103 / 109 40% 1 13.02.2028 -
Matvey Bardachev Zenit Ativo 111 / 104 40% 1 13.02.2028 -
Abubakar Adams Aduana Stars Ativo 95 / 98 40% 1 13.02.2028 -
Sabino González Sarmiento Ativo 99 / 96 40% 2 08.02.2028 -
Tyler Fletcher Rotherham United Ativo 121 / 115 40% 3 08.02.2028 -
Mark Pereverzev Orenburg Ativo 68 / 79 40% 1 04.02.2028 -
Ignacio Cardozo Vélez Ativo 91 / 98 40% 3 02.02.2028 -
Zane Albarus Shrewsbury Town Ativo 106 / 104 40% 3 31.01.2028 -
Tobias Moi Lillestrom Ativo 94 / 109 40% 2 31.01.2028 -
Joaquín Giudice Platense Ativo 100 / 108 40% 6 28.01.2028 -
Joaquín Mancuso Vélez Ativo 93 / 100 40% 1 27.01.2028 -
Charlie Gray Fleetwood Town Ativo 110 / 95 40% 3 25.01.2028 -
Juan Manuel Centurión Independiente Ativo 99 / 102 40% 3 25.01.2028 -
Henry Lawal Remo Stars Ativo 88 / 97 40% 1 24.01.2028 -
Seb Stacey Crawley Town Ativo 94 / 90 40% 2 22.01.2028 -
Enzo Gramajo Vélez Ativo 91 / 91 40% 1 18.01.2028 -
Tiziano Delias Sarmiento Ativo 83 / 91 40% 13 13.01.2028 -
Roberto Moreno Cruz Azul Ativo 79 / 89 40% 1 13.01.2028 -
Josh Nichols Oldham Athletic Ativo 115 / 123 40% 2 12.01.2028 -
Sebastian Jensen Brighton Ativo 88 / 105 40% 1 05.01.2028 -
Lisandro Tejada San Martín SJ Ativo 96 / 97 40% 1 05.01.2028 -
Tobías Pantoja Central Norte Ativo 97 / 107 40% 2 04.01.2028 -
Matías Molina Independiente Ativo 108 / 112 40% 1 04.01.2028 -
Ulíses López Barracas Central Ativo 93 / 97 40% 1 04.01.2028 -
Hosea Michael Remo Stars Ativo 100 / 102 40% 3 31.12.2027 -
Hugo Rojas Instituto Ativo 98 / 107 40% 1 10.12.2027 -
Theofilos Kakadiaris Asteras Ativo 70 / 77 40% 2 05.12.2027 -
Felipe Igón Racing Club Ativo 102 / 104 40% 2 02.12.2027 -
Matias Siltanen Malmo FF Ativo 131 / 122 40% 3 26.11.2027 -
Mohamed Moussa Koïta Mathare United Ativo 87 / 93 40% 1 26.11.2027 -
Gideon Manaseh Ikorodu City Ativo 95 / 91 40% 1 22.11.2027 -
Juan Camilo Córdoba Deportivo Pereira Ativo 91 / 95 40% 1 22.11.2027 -
Siyabonga Hlatshwayo Bloemfontein Celtic Ativo 91 / 89 40% 1 10.11.2027 -
Nikita Dovnar Niva Ativo 66 / 76 40% 1 07.11.2027 -
Adrian Skogmar Malmo FF Ativo 115 / 120 40% 1 03.11.2027 -
Olivier Mambwa Young Boys Ativo 102 / 112 40% 1 03.11.2027 -
Celías Ingenthron Platense Ativo 120 / 126 40% 1 01.11.2027 -
True Grant Oldham Athletic Ativo 109 / 108 40% 2 19.10.2027 -
Christian Bravo Huachipato Ativo 78 / 98 40% 1 18.10.2027 -
Valentín Catalán Argentinos Juniors Ativo 87 / 95 40% 1 18.10.2027 -
Matías Zorzoli Newell's Old Boys Ativo 87 / 105 40% 1 14.10.2027 -
Damián Constanzo River Plate Ativo 90 / 92 40% 1 13.10.2027 -
Matthew Litherland Harrogate Town Ativo 117 / 114 40% 1 04.10.2027 -
Ikenna Nkwazema FC Diarra Ativo 71 / 78 40% 2 26.09.2027 -
Lucas Wolfert Racing Club Ativo 98 / 103 40% 1 23.09.2027 -
Alexei Rojas Fedorushchenko Barrow AFC Ativo 112 / 125 40% 2 19.09.2027 -
Kayne Rizvanovich Minnesota United FC Ativo 91 / 97 40% 1 14.09.2027 -
Anthony Cletus Bendel Insurance Ativo 86 / 88 40% 1 12.09.2027 -
Ethan Gold Crewe Alexandra Ativo 94 / 109 40% 2 09.09.2027 -
Jesús Mejía Real Santander Ativo 79 / 88 40% 1 07.09.2027 -
Joel Ezra Enyimba Ativo 106 / 102 40% 1 30.08.2027 -
Björn Hedlöf Helsingborg Ativo 98 / 104 40% 1 25.08.2027 -
José Cavadia Aguilas Doradas Ativo 116 / 115 40% 1 25.08.2027 -
Isaías Silva Miramar Misiones Ativo 88 / 93 40% 1 21.08.2027 -
Óscar Hinojosa Metropolitanos Ativo 72 / 80 40% 1 21.08.2027 -
Matías Canedo Rampla Juniors Ativo 82 / 94 40% 1 20.08.2027 -
Vittorio Magni Cesena Ativo 105 / 108 40% 2 18.08.2027 -
Chibueze Oputa Rangers International Ativo 82 / 88 40% 2 14.08.2027 -
Tommaso Cecotti Carpi Ativo 107 / 94 40% 1 14.08.2027 -
Panagiotis Markou Doxa Ativo 91 / 109 40% 1 13.08.2027 -
Mpho Khethang FC Diarra Ativo 90 / 81 40% 1 12.08.2027 -
Pedro Vian Seewald Dolomiti Bellunesi Ativo 83 / 106 40% 1 03.08.2027 -
Andrea Bertoncini Triestina Ativo 98 / 100 40% 3 27.07.2027 -
George Hoddle Cambridge United Ativo 86 / 84 40% 2 26.07.2027 -
Leandro Martins Benfica Ativo 98 / 109 40% 2 20.07.2027 -
Riley Owen Stevenage Ativo 107 / 109 40% 2 20.07.2027 -
Wessel Kuhn PSV Ativo 115 / 112 40% 1 18.07.2027 -
Rhys Walters Port Vale Ativo 106 / 112 40% 3 17.07.2027 -
Konta Ismaily Ativo 95 / 94 40% 2 15.07.2027 -
Ahmed Zaki Masr El Makasa Ativo 89 / 93 40% 1 13.07.2027 -
Elijah Adebayo Luton Town Ativo 135 / 120 40% 1 12.07.2027 -
Carlton Morris Derby County Ativo 130 / 131 40% 1 12.07.2027 -
Camillo Tavernelli Arezzo Ativo 126 / 118 40% 1 21.06.2027 -
Gonçalo Oliveira Benfica Ativo 111 / 125 40% 1 01.06.2027 -
Sascha Britschgi AC Milan Ativo 113 / 132 40% 6 27.05.2027 -
Daniel Padilla Zamora Ativo 91 / 98 40% 1 24.05.2027 -
Ezra Mayers West Ham United Ativo 105 / 121 40% 2 20.05.2027 -
Tiago Freitas Benfica Ativo 120 / 118 40% 3 18.05.2027 -
Joseph Namatane FC Metz Ativo 83 / 103 40% 2 30.04.2027 -
Halam Loboa Sevilla Ativo 127 / 136 40% 1 29.04.2027 -
David Ozoh Derby County Ativo 119 / 136 40% 2 21.04.2027 -
Lucas Mbamba Westerlo Ativo 99 / 86 40% 1 19.04.2027 -
Bence Dárdai VfL Wolfsburg Ativo 128 / 126 40% 1 07.04.2027 -
Kirill Glazunov Zenit Ativo 79 / 82 40% 1 27.03.2027 -
Jaygo van Ommeren Utrecht Ativo 111 / 116 40% 1 21.03.2027 -
Lucas Agazzi Villarreal Ativo 128 / 132 40% 1 18.03.2027 -
Darío Poveda Nea Salamis Ativo 110 / 107 40% 2 30.12.2026 -
Nikos Karelis Ativo 97 / 105 40% 1 28.12.2026 -
Juan Cejas Ethnikos Achnas Ativo 104 / 109 40% 2 27.12.2026 -
Brayan Gil Baltika Ativo 115 / 112 40% 2 27.12.2026 -
Mohamed Konaté Akhmat Grozny Ativo 114 / 111 40% 2 17.12.2026 -
Prince Ibara Al-Njoom Ativo 99 / 104 40% 1 14.12.2026 -
Yeangel Montero Naxxar Lions Ativo 91 / 112 40% 1 12.12.2026 -
Ivan Sergeev Dinamo Moscow Ativo 117 / 129 40% 1 06.12.2026 -
Sam Nombe Milton Keynes Dons Ativo 109 / 119 40% 1 01.12.2026 -
Alexandr Kokorin Ativo 125 / 114 40% 1 01.12.2026 -
Jamie Reid Stevenage Ativo 114 / 96 40% 1 30.11.2026 -
Arthur Gomes Dinamo Moscow Ativo 124 / 124 40% 1 28.11.2026 -
Mamadou Sylla Al-Riyadh Ativo 141 / 114 40% 2 25.11.2026 -
Ruslan Apekov Torpedo Moscow Ativo 95 / 101 40% 1 24.11.2026 -
Nicolae Milinceanu Doxa Ativo 104 / 107 40% 1 22.11.2026 -
Marcelo Torres Gimnasia La Plata Ativo 118 / 112 40% 2 19.11.2026 -
Wilfried Kanga Al-Fateh Ativo 130 / 110 40% 1 15.11.2026 -
Leandro Antunes Al-Riyadh Ativo 115 / 115 40% 1 14.11.2026 -
Luis Solignac Al-Ittihad Ativo 95 / 110 40% 1 11.11.2026 -
Amur Kalmykov Spartak Kostroma Ativo 122 / 108 40% 1 06.11.2026 -
Simy Al-Orobah Ativo 139 / 109 40% 1 06.11.2026 -
Peter Olayinka Al-Wehda Ativo 133 / 129 40% 1 05.11.2026 -
Dimitris Diamantakos APOEL Ativo 119 / 101 40% 1 03.11.2026 -
Manprit Sarkaria Austria Wien Ativo 123 / 104 40% 1 02.11.2026 -
Charalabos Georgiadis Panserraikos Ativo 75 / 88 40% 1 17.08.2026 -
Thiago Martínez Defensa y Justicia Ativo 83 / 103 40% 1 02.08.2026 -